Stringtown, Missouri
Current Conditions -  °F | °C
As of 6:01 PM on Friday 24 Oct 2014 (Local Time) from KJLN Reporting Station
Few Clouds Few Clouds  
Wind Chill: 71°   Ceiling: Unl
Heat Index: 71°   Visibility: 10mi
Dew Point: 61°   Wind: 8mph
Humidity: 70%   Direction: 210°SSW
Pressure: 30.04"   Gusts: NA
Location:  37.2082°N, 94.5634°W
Report Text: KJLN 242301Z 21007KT 10SM FEW002 22/16 A3004 RMK AO2 T02170161
Loading
Personal Weather Stations






























Interactive Weather Map
Tropical Storm Tracking
New forecast layout! Learn more

10-Day Weather Forecast

Advertisements
Track Severe Weather on mobile